Sarajevo, Bosnia and Herzegovina
Current Conditions -  °F | °C
As of 4:00 PM on Monday 24 Nov 2014 (Local Time) from LQSA Reporting Station
Haze Haze  
Wind Chill:   Ceiling: Unl
Heat Index:   Visibility: 2.5mi
Dew Point:   Wind: 3mph
Humidity: 66%   Direction: 300°WNW
Pressure: 30.21"   Gusts: NA
Location:  43.85°N, 18.38°E
Report Text: LQSA 241400Z 30003KT 4000 BR NSC 07/01 Q1023 NOSIG
Loading
Personal Weather Stations






























Interactive Weather Map New forecast layout! Learn more

10-Day Weather Forecast

Advertisements
Track Severe Weather on mobile